sensor_id;sensor_type;location;lat;lon;timestamp;P1;durP1;ratioP1;P2;durP2;ratioP2
67074;SDS011;53990;50.334;18.640;2023-08-07T00:01:41;4.40;;;3.40;;
67074;SDS011;53990;50.334;18.640;2023-08-07T00:04:08;4.70;;;3.20;;
67074;SDS011;53990;50.334;18.640;2023-08-07T00:06:35;4.20;;;3.10;;
67074;SDS011;53990;50.334;18.640;2023-08-07T00:09:03;7.20;;;3.30;;
67074;SDS011;53990;50.334;18.640;2023-08-07T00:11:30;4.30;;;3.50;;
67074;SDS011;53990;50.334;18.640;2023-08-07T00:13:58;5.10;;;3.40;;
67074;SDS011;53990;50.334;18.640;2023-08-07T00:16:25;4.70;;;3.00;;
67074;SDS011;53990;50.334;18.640;2023-08-07T00:18:52;4.70;;;3.30;;
67074;SDS011;53990;50.334;18.640;2023-08-07T00:21:22;4.40;;;3.20;;
67074;SDS011;53990;50.334;18.640;2023-08-07T00:23:50;6.00;;;3.80;;
67074;SDS011;53990;50.334;18.640;2023-08-07T00:26:17;5.40;;;4.00;;
67074;SDS011;53990;50.334;18.640;2023-08-07T00:28:45;6.20;;;3.70;;
67074;SDS011;53990;50.334;18.640;2023-08-07T00:31:13;7.70;;;3.90;;
67074;SDS011;53990;50.334;18.640;2023-08-07T00:33:40;6.50;;;3.70;;
67074;SDS011;53990;50.334;18.640;2023-08-07T00:36:07;4.40;;;3.60;;
67074;SDS011;53990;50.334;18.640;2023-08-07T00:38:35;5.60;;;3.90;;
67074;SDS011;53990;50.334;18.640;2023-08-07T00:41:02;5.90;;;4.10;;
67074;SDS011;53990;50.334;18.640;2023-08-07T00:43:30;6.80;;;4.30;;
67074;SDS011;53990;50.334;18.640;2023-08-07T00:45:57;5.50;;;3.70;;
67074;SDS011;53990;50.334;18.640;2023-08-07T00:48:24;4.50;;;4.10;;
67074;SDS011;53990;50.334;18.640;2023-08-07T00:50:51;4.20;;;3.30;;
67074;SDS011;53990;50.334;18.640;2023-08-07T00:53:19;5.60;;;3.50;;
67074;SDS011;53990;50.334;18.640;2023-08-07T00:55:47;6.50;;;4.10;;
67074;SDS011;53990;50.334;18.640;2023-08-07T00:58:14;5.40;;;4.10;;
67074;SDS011;53990;50.334;18.640;2023-08-07T01:00:41;5.00;;;4.10;;
67074;SDS011;53990;50.334;18.640;2023-08-07T01:03:11;5.60;;;4.00;;
67074;SDS011;53990;50.334;18.640;2023-08-07T01:05:39;4.40;;;3.60;;
67074;SDS011;53990;50.334;18.640;2023-08-07T01:08:07;4.80;;;3.90;;
67074;SDS011;53990;50.334;18.640;2023-08-07T01:11:01;7.90;;;4.30;;
67074;SDS011;53990;50.334;18.640;2023-08-07T01:17:11;6.50;;;5.60;;
67074;SDS011;53990;50.334;18.640;2023-08-07T01:19:41;7.60;;;4.40;;
67074;SDS011;53990;50.334;18.640;2023-08-07T01:22:15;7.60;;;4.60;;
67074;SDS011;53990;50.334;18.640;2023-08-07T01:24:46;5.40;;;4.50;;
67074;SDS011;53990;50.334;18.640;2023-08-07T01:32:34;6.90;;;4.80;;
67074;SDS011;53990;50.334;18.640;2023-08-07T01:35:03;8.50;;;5.20;;
67074;SDS011;53990;50.334;18.640;2023-08-07T01:37:34;6.90;;;5.20;;
67074;SDS011;53990;50.334;18.640;2023-08-07T01:40:02;5.80;;;5.20;;
67074;SDS011;53990;50.334;18.640;2023-08-07T01:42:33;8.80;;;5.60;;
67074;SDS011;53990;50.334;18.640;2023-08-07T01:45:01;6.50;;;5.70;;
67074;SDS011;53990;50.334;18.640;2023-08-07T01:47:28;8.40;;;5.10;;
67074;SDS011;53990;50.334;18.640;2023-08-07T01:49:55;6.70;;;4.90;;
67074;SDS011;53990;50.334;18.640;2023-08-07T01:52:22;6.40;;;4.90;;
67074;SDS011;53990;50.334;18.640;2023-08-07T01:54:50;8.70;;;5.00;;
67074;SDS011;53990;50.334;18.640;2023-08-07T01:57:17;5.90;;;4.50;;
67074;SDS011;53990;50.334;18.640;2023-08-07T01:59:44;6.60;;;4.90;;
67074;SDS011;53990;50.334;18.640;2023-08-07T02:02:11;5.80;;;4.70;;
67074;SDS011;53990;50.334;18.640;2023-08-07T02:04:39;6.80;;;4.80;;
67074;SDS011;53990;50.334;18.640;2023-08-07T02:07:06;5.60;;;4.90;;
67074;SDS011;53990;50.334;18.640;2023-08-07T02:09:33;7.20;;;4.90;;
67074;SDS011;53990;50.334;18.640;2023-08-07T02:12:00;8.40;;;4.80;;
67074;SDS011;53990;50.334;18.640;2023-08-07T02:14:28;7.30;;;5.10;;
67074;SDS011;53990;50.334;18.640;2023-08-07T02:16:55;8.10;;;5.10;;
67074;SDS011;53990;50.334;18.640;2023-08-07T02:19:23;6.00;;;5.40;;
67074;SDS011;53990;50.334;18.640;2023-08-07T02:21:50;7.50;;;5.50;;
67074;SDS011;53990;50.334;18.640;2023-08-07T02:24:17;6.30;;;5.40;;
67074;SDS011;53990;50.334;18.640;2023-08-07T02:26:46;6.90;;;5.40;;
67074;SDS011;53990;50.334;18.640;2023-08-07T02:29:14;6.00;;;5.30;;
67074;SDS011;53990;50.334;18.640;2023-08-07T02:31:41;7.90;;;6.20;;
67074;SDS011;53990;50.334;18.640;2023-08-07T02:34:08;6.40;;;5.50;;
67074;SDS011;53990;50.334;18.640;2023-08-07T02:36:35;7.70;;;5.40;;
67074;SDS011;53990;50.334;18.640;2023-08-07T02:39:04;6.30;;;5.00;;
67074;SDS011;53990;50.334;18.640;2023-08-07T02:41:31;6.60;;;5.40;;
67074;SDS011;53990;50.334;18.640;2023-08-07T02:43:58;5.90;;;5.40;;
67074;SDS011;53990;50.334;18.640;2023-08-07T02:46:25;6.50;;;5.20;;
67074;SDS011;53990;50.334;18.640;2023-08-07T02:48:53;7.20;;;5.30;;
67074;SDS011;53990;50.334;18.640;2023-08-07T02:51:20;6.50;;;5.00;;
67074;SDS011;53990;50.334;18.640;2023-08-07T02:53:48;6.40;;;5.10;;
67074;SDS011;53990;50.334;18.640;2023-08-07T02:56:15;5.90;;;4.60;;
67074;SDS011;53990;50.334;18.640;2023-08-07T02:58:42;5.70;;;4.80;;
67074;SDS011;53990;50.334;18.640;2023-08-07T03:01:09;5.50;;;4.60;;
67074;SDS011;53990;50.334;18.640;2023-08-07T03:03:38;7.60;;;4.80;;
67074;SDS011;53990;50.334;18.640;2023-08-07T03:06:05;6.50;;;4.50;;
67074;SDS011;53990;50.334;18.640;2023-08-07T03:08:33;7.70;;;4.70;;
67074;SDS011;53990;50.334;18.640;2023-08-07T03:11:00;7.00;;;5.20;;
67074;SDS011;53990;50.334;18.640;2023-08-07T03:13:27;5.40;;;4.60;;
67074;SDS011;53990;50.334;18.640;2023-08-07T03:16:04;5.20;;;4.70;;
67074;SDS011;53990;50.334;18.640;2023-08-07T03:18:33;5.70;;;4.80;;
67074;SDS011;53990;50.334;18.640;2023-08-07T03:21:00;6.80;;;4.90;;
67074;SDS011;53990;50.334;18.640;2023-08-07T03:23:28;6.40;;;4.70;;
67074;SDS011;53990;50.334;18.640;2023-08-07T03:26:07;5.10;;;4.50;;
67074;SDS011;53990;50.334;18.640;2023-08-07T03:28:35;6.20;;;4.40;;
67074;SDS011;53990;50.334;18.640;2023-08-07T03:31:03;6.50;;;4.80;;
67074;SDS011;53990;50.334;18.640;2023-08-07T03:33:30;5.90;;;4.50;;
67074;SDS011;53990;50.334;18.640;2023-08-07T03:35:57;6.40;;;4.30;;
67074;SDS011;53990;50.334;18.640;2023-08-07T03:38:25;5.10;;;4.40;;
67074;SDS011;53990;50.334;18.640;2023-08-07T03:40:52;5.70;;;4.40;;
67074;SDS011;53990;50.334;18.640;2023-08-07T03:43:19;5.10;;;4.30;;
67074;SDS011;53990;50.334;18.640;2023-08-07T03:45:47;6.70;;;4.40;;
67074;SDS011;53990;50.334;18.640;2023-08-07T03:48:14;5.00;;;4.50;;
67074;SDS011;53990;50.334;18.640;2023-08-07T03:50:41;5.40;;;4.10;;
67074;SDS011;53990;50.334;18.640;2023-08-07T03:53:08;5.10;;;3.80;;
67074;SDS011;53990;50.334;18.640;2023-08-07T03:55:36;4.70;;;4.00;;
67074;SDS011;53990;50.334;18.640;2023-08-07T03:58:03;4.70;;;3.80;;
67074;SDS011;53990;50.334;18.640;2023-08-07T04:00:30;5.20;;;3.20;;
67074;SDS011;53990;50.334;18.640;2023-08-07T04:02:57;4.40;;;3.10;;
67074;SDS011;53990;50.334;18.640;2023-08-07T04:05:24;5.70;;;3.50;;
67074;SDS011;53990;50.334;18.640;2023-08-07T04:07:52;3.40;;;2.80;;
67074;SDS011;53990;50.334;18.640;2023-08-07T04:10:19;3.60;;;2.90;;
67074;SDS011;53990;50.334;18.640;2023-08-07T04:12:46;4.40;;;3.40;;
67074;SDS011;53990;50.334;18.640;2023-08-07T04:15:13;5.20;;;3.00;;
67074;SDS011;53990;50.334;18.640;2023-08-07T04:17:41;4.10;;;3.00;;
67074;SDS011;53990;50.334;18.640;2023-08-07T04:20:08;4.30;;;3.10;;
67074;SDS011;53990;50.334;18.640;2023-08-07T04:22:35;4.40;;;3.20;;
67074;SDS011;53990;50.334;18.640;2023-08-07T04:25:03;6.00;;;3.70;;
67074;SDS011;53990;50.334;18.640;2023-08-07T04:27:30;4.90;;;2.90;;
67074;SDS011;53990;50.334;18.640;2023-08-07T04:29:57;6.80;;;5.80;;
67074;SDS011;53990;50.334;18.640;2023-08-07T04:32:25;8.70;;;3.90;;
67074;SDS011;53990;50.334;18.640;2023-08-07T04:34:52;4.60;;;3.40;;
67074;SDS011;53990;50.334;18.640;2023-08-07T04:37:19;4.40;;;3.20;;
67074;SDS011;53990;50.334;18.640;2023-08-07T04:39:47;4.80;;;2.90;;
67074;SDS011;53990;50.334;18.640;2023-08-07T04:42:14;3.40;;;2.70;;
67074;SDS011;53990;50.334;18.640;2023-08-07T04:44:41;4.00;;;2.70;;
67074;SDS011;53990;50.334;18.640;2023-08-07T04:47:08;4.00;;;2.80;;
67074;SDS011;53990;50.334;18.640;2023-08-07T04:49:35;3.90;;;2.40;;
67074;SDS011;53990;50.334;18.640;2023-08-07T04:52:03;3.70;;;2.30;;
67074;SDS011;53990;50.334;18.640;2023-08-07T04:54:30;5.10;;;3.10;;
67074;SDS011;53990;50.334;18.640;2023-08-07T04:56:57;4.40;;;2.90;;
67074;SDS011;53990;50.334;18.640;2023-08-07T04:59:24;3.00;;;2.20;;
67074;SDS011;53990;50.334;18.640;2023-08-07T05:01:52;5.20;;;2.00;;
67074;SDS011;53990;50.334;18.640;2023-08-07T05:04:19;2.50;;;1.90;;
67074;SDS011;53990;50.334;18.640;2023-08-07T05:06:46;3.90;;;2.50;;
67074;SDS011;53990;50.334;18.640;2023-08-07T05:09:13;3.10;;;2.00;;
67074;SDS011;53990;50.334;18.640;2023-08-07T05:11:40;4.90;;;2.40;;
67074;SDS011;53990;50.334;18.640;2023-08-07T05:14:07;3.40;;;2.10;;
67074;SDS011;53990;50.334;18.640;2023-08-07T05:16:35;3.50;;;2.10;;
67074;SDS011;53990;50.334;18.640;2023-08-07T05:19:02;3.00;;;2.10;;
67074;SDS011;53990;50.334;18.640;2023-08-07T05:21:29;3.40;;;1.90;;
67074;SDS011;53990;50.334;18.640;2023-08-07T05:23:57;3.80;;;1.90;;
67074;SDS011;53990;50.334;18.640;2023-08-07T05:26:24;4.00;;;2.20;;
67074;SDS011;53990;50.334;18.640;2023-08-07T05:28:51;3.40;;;2.30;;
67074;SDS011;53990;50.334;18.640;2023-08-07T05:31:18;3.80;;;2.20;;
67074;SDS011;53990;50.334;18.640;2023-08-07T05:33:45;2.70;;;2.00;;
67074;SDS011;53990;50.334;18.640;2023-08-07T05:36:12;3.10;;;2.20;;
67074;SDS011;53990;50.334;18.640;2023-08-07T05:38:40;5.60;;;3.40;;
67074;SDS011;53990;50.334;18.640;2023-08-07T05:41:08;3.90;;;2.10;;
67074;SDS011;53990;50.334;18.640;2023-08-07T05:43:36;4.30;;;2.20;;
67074;SDS011;53990;50.334;18.640;2023-08-07T05:46:03;1.70;;;1.40;;
67074;SDS011;53990;50.334;18.640;2023-08-07T05:48:31;1.70;;;1.20;;
67074;SDS011;53990;50.334;18.640;2023-08-07T05:50:58;1.70;;;1.10;;
67074;SDS011;53990;50.334;18.640;2023-08-07T05:53:25;1.80;;;1.10;;
67074;SDS011;53990;50.334;18.640;2023-08-07T05:55:53;2.90;;;1.10;;
67074;SDS011;53990;50.334;18.640;2023-08-07T05:58:20;1.40;;;0.90;;
67074;SDS011;53990;50.334;18.640;2023-08-07T06:00:47;1.60;;;0.90;;
67074;SDS011;53990;50.334;18.640;2023-08-07T06:03:14;1.60;;;0.90;;
67074;SDS011;53990;50.334;18.640;2023-08-07T06:05:41;6.40;;;2.90;;
67074;SDS011;53990;50.334;18.640;2023-08-07T06:08:09;5.00;;;1.80;;
67074;SDS011;53990;50.334;18.640;2023-08-07T06:10:37;1.70;;;1.20;;
67074;SDS011;53990;50.334;18.640;2023-08-07T06:13:04;1.10;;;0.80;;
67074;SDS011;53990;50.334;18.640;2023-08-07T06:15:32;1.00;;;0.90;;
67074;SDS011;53990;50.334;18.640;2023-08-07T06:18:00;1.10;;;0.80;;
67074;SDS011;53990;50.334;18.640;2023-08-07T06:20:27;1.60;;;0.80;;
67074;SDS011;53990;50.334;18.640;2023-08-07T06:22:54;1.30;;;0.80;;
67074;SDS011;53990;50.334;18.640;2023-08-07T06:25:21;2.30;;;0.80;;
67074;SDS011;53990;50.334;18.640;2023-08-07T06:27:50;1.40;;;1.00;;
67074;SDS011;53990;50.334;18.640;2023-08-07T06:30:17;2.00;;;1.30;;
67074;SDS011;53990;50.334;18.640;2023-08-07T06:32:44;1.60;;;0.90;;
67074;SDS011;53990;50.334;18.640;2023-08-07T06:35:12;2.50;;;0.90;;
67074;SDS011;53990;50.334;18.640;2023-08-07T06:37:39;1.60;;;1.00;;
67074;SDS011;53990;50.334;18.640;2023-08-07T06:40:07;4.30;;;1.10;;
67074;SDS011;53990;50.334;18.640;2023-08-07T06:42:34;2.70;;;1.00;;
67074;SDS011;53990;50.334;18.640;2023-08-07T06:45:01;1.30;;;0.90;;
67074;SDS011;53990;50.334;18.640;2023-08-07T06:47:29;1.90;;;0.90;;
67074;SDS011;53990;50.334;18.640;2023-08-07T06:49:57;4.40;;;1.30;;
67074;SDS011;53990;50.334;18.640;2023-08-07T06:52:24;3.00;;;1.90;;
67074;SDS011;53990;50.334;18.640;2023-08-07T06:54:51;2.20;;;1.10;;
67074;SDS011;53990;50.334;18.640;2023-08-07T06:57:19;2.00;;;0.80;;
67074;SDS011;53990;50.334;18.640;2023-08-07T06:59:46;2.00;;;0.80;;
67074;SDS011;53990;50.334;18.640;2023-08-07T07:02:13;1.20;;;0.80;;
67074;SDS011;53990;50.334;18.640;2023-08-07T07:04:41;1.10;;;0.80;;
67074;SDS011;53990;50.334;18.640;2023-08-07T07:07:08;1.70;;;1.00;;
67074;SDS011;53990;50.334;18.640;2023-08-07T07:09:35;3.00;;;0.90;;
67074;SDS011;53990;50.334;18.640;2023-08-07T07:12:03;1.60;;;0.70;;
67074;SDS011;53990;50.334;18.640;2023-08-07T07:14:32;1.70;;;0.60;;
67074;SDS011;53990;50.334;18.640;2023-08-07T07:17:00;3.60;;;2.10;;
67074;SDS011;53990;50.334;18.640;2023-08-07T07:19:28;4.40;;;0.70;;
67074;SDS011;53990;50.334;18.640;2023-08-07T07:21:55;0.70;;;0.50;;
67074;SDS011;53990;50.334;18.640;2023-08-07T07:24:22;1.00;;;0.80;;
67074;SDS011;53990;50.334;18.640;2023-08-07T07:26:49;1.70;;;0.80;;
67074;SDS011;53990;50.334;18.640;2023-08-07T07:29:17;1.10;;;0.70;;
67074;SDS011;53990;50.334;18.640;2023-08-07T07:31:45;3.80;;;0.80;;
67074;SDS011;53990;50.334;18.640;2023-08-07T07:34:13;2.40;;;0.80;;
67074;SDS011;53990;50.334;18.640;2023-08-07T07:36:41;1.70;;;0.60;;
67074;SDS011;53990;50.334;18.640;2023-08-07T07:39:08;1.30;;;0.70;;
67074;SDS011;53990;50.334;18.640;2023-08-07T07:41:37;1.70;;;0.70;;
67074;SDS011;53990;50.334;18.640;2023-08-07T07:44:04;4.00;;;0.90;;
67074;SDS011;53990;50.334;18.640;2023-08-07T07:46:31;2.40;;;1.00;;
67074;SDS011;53990;50.334;18.640;2023-08-07T07:48:59;1.50;;;0.80;;
67074;SDS011;53990;50.334;18.640;2023-08-07T07:51:28;1.90;;;0.80;;
67074;SDS011;53990;50.334;18.640;2023-08-07T07:53:56;1.70;;;0.90;;
67074;SDS011;53990;50.334;18.640;2023-08-07T07:56:23;4.90;;;1.00;;
67074;SDS011;53990;50.334;18.640;2023-08-07T07:58:50;1.80;;;0.80;;
67074;SDS011;53990;50.334;18.640;2023-08-07T08:01:18;2.60;;;0.70;;
67074;SDS011;53990;50.334;18.640;2023-08-07T08:03:45;1.90;;;0.70;;
67074;SDS011;53990;50.334;18.640;2023-08-07T08:06:12;3.30;;;2.20;;
67074;SDS011;53990;50.334;18.640;2023-08-07T08:08:42;1.60;;;1.00;;
67074;SDS011;53990;50.334;18.640;2023-08-07T08:11:09;3.00;;;1.30;;
67074;SDS011;53990;50.334;18.640;2023-08-07T08:13:36;1.20;;;0.80;;
67074;SDS011;53990;50.334;18.640;2023-08-07T08:16:07;2.20;;;0.90;;
67074;SDS011;53990;50.334;18.640;2023-08-07T08:18:34;2.00;;;0.80;;
67074;SDS011;53990;50.334;18.640;2023-08-07T08:21:01;2.50;;;0.90;;
67074;SDS011;53990;50.334;18.640;2023-08-07T08:23:29;1.20;;;0.80;;
67074;SDS011;53990;50.334;18.640;2023-08-07T08:25:56;2.50;;;0.90;;
67074;SDS011;53990;50.334;18.640;2023-08-07T08:28:23;3.20;;;1.10;;
67074;SDS011;53990;50.334;18.640;2023-08-07T08:30:51;2.80;;;1.30;;
67074;SDS011;53990;50.334;18.640;2023-08-07T08:33:18;2.20;;;1.30;;
67074;SDS011;53990;50.334;18.640;2023-08-07T08:35:45;2.60;;;1.20;;
67074;SDS011;53990;50.334;18.640;2023-08-07T08:38:13;1.60;;;1.20;;
67074;SDS011;53990;50.334;18.640;2023-08-07T08:40:40;1.50;;;0.90;;
67074;SDS011;53990;50.334;18.640;2023-08-07T08:43:08;2.20;;;1.10;;
67074;SDS011;53990;50.334;18.640;2023-08-07T08:45:39;2.10;;;1.20;;
67074;SDS011;53990;50.334;18.640;2023-08-07T08:48:09;2.50;;;1.20;;
67074;SDS011;53990;50.334;18.640;2023-08-07T08:50:42;2.40;;;1.30;;
67074;SDS011;53990;50.334;18.640;2023-08-07T08:53:10;2.00;;;1.10;;
67074;SDS011;53990;50.334;18.640;2023-08-07T08:55:38;4.10;;;1.40;;
67074;SDS011;53990;50.334;18.640;2023-08-07T08:58:05;2.00;;;0.90;;
67074;SDS011;53990;50.334;18.640;2023-08-07T09:00:33;3.00;;;1.10;;
67074;SDS011;53990;50.334;18.640;2023-08-07T09:03:01;4.30;;;3.30;;
67074;SDS011;53990;50.334;18.640;2023-08-07T09:05:29;1.80;;;1.20;;
67074;SDS011;53990;50.334;18.640;2023-08-07T09:07:57;1.60;;;0.90;;
67074;SDS011;53990;50.334;18.640;2023-08-07T09:10:24;2.30;;;1.10;;
67074;SDS011;53990;50.334;18.640;2023-08-07T09:13:02;2.60;;;1.30;;
67074;SDS011;53990;50.334;18.640;2023-08-07T09:15:32;1.90;;;1.10;;
67074;SDS011;53990;50.334;18.640;2023-08-07T09:18:00;1.40;;;1.10;;
67074;SDS011;53990;50.334;18.640;2023-08-07T09:20:28;3.10;;;1.30;;
67074;SDS011;53990;50.334;18.640;2023-08-07T09:22:55;2.00;;;1.20;;
67074;SDS011;53990;50.334;18.640;2023-08-07T09:25:29;2.10;;;1.40;;
67074;SDS011;53990;50.334;18.640;2023-08-07T09:27:57;2.30;;;1.30;;
67074;SDS011;53990;50.334;18.640;2023-08-07T09:30:28;2.10;;;1.20;;
67074;SDS011;53990;50.334;18.640;2023-08-07T09:32:57;4.00;;;1.90;;
67074;SDS011;53990;50.334;18.640;2023-08-07T09:35:25;4.20;;;2.60;;
67074;SDS011;53990;50.334;18.640;2023-08-07T09:37:52;7.30;;;2.90;;
67074;SDS011;53990;50.334;18.640;2023-08-07T09:40:19;5.70;;;3.30;;
67074;SDS011;53990;50.334;18.640;2023-08-07T09:42:51;6.10;;;3.40;;
67074;SDS011;53990;50.334;18.640;2023-08-07T09:48:05;6.90;;;3.50;;
67074;SDS011;53990;50.334;18.640;2023-08-07T09:50:38;4.40;;;3.00;;
67074;SDS011;53990;50.334;18.640;2023-08-07T09:53:06;5.30;;;3.00;;
67074;SDS011;53990;50.334;18.640;2023-08-07T09:55:33;4.30;;;2.70;;
67074;SDS011;53990;50.334;18.640;2023-08-07T09:58:01;5.90;;;3.40;;
67074;SDS011;53990;50.334;18.640;2023-08-07T10:00:33;4.70;;;2.90;;
67074;SDS011;53990;50.334;18.640;2023-08-07T10:03:01;6.40;;;3.40;;
67074;SDS011;53990;50.334;18.640;2023-08-07T10:05:35;6.00;;;3.40;;
67074;SDS011;53990;50.334;18.640;2023-08-07T10:08:03;5.10;;;3.30;;
67074;SDS011;53990;50.334;18.640;2023-08-07T10:10:34;5.00;;;3.30;;
67074;SDS011;53990;50.334;18.640;2023-08-07T10:13:01;5.60;;;3.20;;
67074;SDS011;53990;50.334;18.640;2023-08-07T10:15:32;4.20;;;3.10;;
67074;SDS011;53990;50.334;18.640;2023-08-07T10:18:01;4.80;;;3.30;;
67074;SDS011;53990;50.334;18.640;2023-08-07T10:20:29;5.00;;;3.60;;
67074;SDS011;53990;50.334;18.640;2023-08-07T10:23:02;6.50;;;3.20;;
67074;SDS011;53990;50.334;18.640;2023-08-07T10:25:31;4.20;;;3.10;;
67074;SDS011;53990;50.334;18.640;2023-08-07T10:28:00;4.40;;;3.20;;
67074;SDS011;53990;50.334;18.640;2023-08-07T10:30:29;8.40;;;4.60;;
67074;SDS011;53990;50.334;18.640;2023-08-07T10:32:57;4.10;;;2.90;;
67074;SDS011;53990;50.334;18.640;2023-08-07T10:35:33;4.30;;;2.80;;
67074;SDS011;53990;50.334;18.640;2023-08-07T10:38:08;3.90;;;2.90;;
67074;SDS011;53990;50.334;18.640;2023-08-07T10:41:01;4.30;;;2.50;;
67074;SDS011;53990;50.334;18.640;2023-08-07T10:43:30;4.70;;;2.50;;
67074;SDS011;53990;50.334;18.640;2023-08-07T10:46:15;4.20;;;2.40;;
67074;SDS011;53990;50.334;18.640;2023-08-07T10:48:45;4.30;;;2.70;;
67074;SDS011;53990;50.334;18.640;2023-08-07T10:51:16;6.80;;;3.70;;
67074;SDS011;53990;50.334;18.640;2023-08-07T10:53:48;4.10;;;2.60;;
67074;SDS011;53990;50.334;18.640;2023-08-07T10:56:31;7.20;;;2.80;;
67074;SDS011;53990;50.334;18.640;2023-08-07T10:59:07;4.20;;;2.40;;
67074;SDS011;53990;50.334;18.640;2023-08-07T11:04:08;3.40;;;2.30;;
67074;SDS011;53990;50.334;18.640;2023-08-07T11:06:37;4.80;;;2.90;;
67074;SDS011;53990;50.334;18.640;2023-08-07T11:09:06;5.70;;;4.10;;
67074;SDS011;53990;50.334;18.640;2023-08-07T11:14:11;6.20;;;5.10;;
67074;SDS011;53990;50.334;18.640;2023-08-07T11:16:40;6.20;;;4.40;;
67074;SDS011;53990;50.334;18.640;2023-08-07T11:19:08;4.40;;;3.70;;
67074;SDS011;53990;50.334;18.640;2023-08-07T11:21:37;4.60;;;3.30;;
67074;SDS011;53990;50.334;18.640;2023-08-07T11:24:05;5.60;;;3.80;;
67074;SDS011;53990;50.334;18.640;2023-08-07T11:26:32;5.70;;;3.50;;
67074;SDS011;53990;50.334;18.640;2023-08-07T11:28:59;6.90;;;3.20;;
67074;SDS011;53990;50.334;18.640;2023-08-07T11:31:27;3.80;;;2.70;;
67074;SDS011;53990;50.334;18.640;2023-08-07T11:33:55;3.80;;;2.50;;
67074;SDS011;53990;50.334;18.640;2023-08-07T11:36:24;4.90;;;2.70;;
67074;SDS011;53990;50.334;18.640;2023-08-07T11:38:52;4.20;;;2.50;;
67074;SDS011;53990;50.334;18.640;2023-08-07T11:41:19;7.40;;;3.10;;
67074;SDS011;53990;50.334;18.640;2023-08-07T11:43:47;4.40;;;2.90;;
67074;SDS011;53990;50.334;18.640;2023-08-07T11:46:15;5.60;;;2.70;;
67074;SDS011;53990;50.334;18.640;2023-08-07T11:48:43;5.50;;;2.80;;
67074;SDS011;53990;50.334;18.640;2023-08-07T11:51:11;5.90;;;3.20;;
67074;SDS011;53990;50.334;18.640;2023-08-07T11:53:40;4.20;;;3.00;;
67074;SDS011;53990;50.334;18.640;2023-08-07T11:56:13;4.70;;;2.80;;
67074;SDS011;53990;50.334;18.640;2023-08-07T11:58:48;4.60;;;2.90;;
67074;SDS011;53990;50.334;18.640;2023-08-07T12:01:18;4.30;;;2.70;;
67074;SDS011;53990;50.334;18.640;2023-08-07T12:03:54;4.90;;;2.90;;
67074;SDS011;53990;50.334;18.640;2023-08-07T12:06:25;3.70;;;2.10;;
67074;SDS011;53990;50.334;18.640;2023-08-07T12:08:55;6.90;;;3.10;;
67074;SDS011;53990;50.334;18.640;2023-08-07T12:11:23;6.00;;;3.50;;
67074;SDS011;53990;50.334;18.640;2023-08-07T12:13:51;6.60;;;3.60;;
67074;SDS011;53990;50.334;18.640;2023-08-07T12:16:18;6.40;;;3.80;;
67074;SDS011;53990;50.334;18.640;2023-08-07T12:18:47;6.10;;;4.10;;
67074;SDS011;53990;50.334;18.640;2023-08-07T12:21:18;7.30;;;3.90;;
67074;SDS011;53990;50.334;18.640;2023-08-07T12:23:51;5.80;;;4.00;;
67074;SDS011;53990;50.334;18.640;2023-08-07T12:26:21;6.50;;;4.20;;
67074;SDS011;53990;50.334;18.640;2023-08-07T12:28:49;5.60;;;4.20;;
67074;SDS011;53990;50.334;18.640;2023-08-07T12:31:17;5.10;;;3.80;;
67074;SDS011;53990;50.334;18.640;2023-08-07T12:33:44;6.50;;;4.00;;
67074;SDS011;53990;50.334;18.640;2023-08-07T12:36:12;4.60;;;3.50;;
67074;SDS011;53990;50.334;18.640;2023-08-07T12:38:41;5.90;;;3.90;;
67074;SDS011;53990;50.334;18.640;2023-08-07T12:41:09;6.50;;;4.30;;
67074;SDS011;53990;50.334;18.640;2023-08-07T12:43:36;6.60;;;4.70;;
67074;SDS011;53990;50.334;18.640;2023-08-07T12:46:03;7.10;;;4.50;;
67074;SDS011;53990;50.334;18.640;2023-08-07T12:48:31;6.30;;;4.60;;
67074;SDS011;53990;50.334;18.640;2023-08-07T12:50:58;7.80;;;5.50;;
67074;SDS011;53990;50.334;18.640;2023-08-07T12:53:25;6.00;;;4.70;;
67074;SDS011;53990;50.334;18.640;2023-08-07T12:55:53;9.10;;;5.60;;
67074;SDS011;53990;50.334;18.640;2023-08-07T12:58:20;9.20;;;5.40;;
67074;SDS011;53990;50.334;18.640;2023-08-07T13:00:52;7.00;;;4.70;;
67074;SDS011;53990;50.334;18.640;2023-08-07T13:03:20;6.70;;;4.10;;
67074;SDS011;53990;50.334;18.640;2023-08-07T13:11:09;4.20;;;3.00;;
67074;SDS011;53990;50.334;18.640;2023-08-07T13:19:22;3.70;;;2.10;;
67074;SDS011;53990;50.334;18.640;2023-08-07T13:21:49;6.70;;;2.40;;
67074;SDS011;53990;50.334;18.640;2023-08-07T13:24:16;2.90;;;1.70;;
67074;SDS011;53990;50.334;18.640;2023-08-07T13:26:44;3.40;;;1.70;;
67074;SDS011;53990;50.334;18.640;2023-08-07T13:29:14;2.80;;;1.70;;
67074;SDS011;53990;50.334;18.640;2023-08-07T13:31:41;3.10;;;1.70;;
67074;SDS011;53990;50.334;18.640;2023-08-07T13:34:09;5.40;;;1.80;;
67074;SDS011;53990;50.334;18.640;2023-08-07T13:36:37;5.50;;;2.00;;
67074;SDS011;53990;50.334;18.640;2023-08-07T13:39:05;3.50;;;2.00;;
67074;SDS011;53990;50.334;18.640;2023-08-07T13:41:32;3.20;;;1.70;;
67074;SDS011;53990;50.334;18.640;2023-08-07T13:43:59;3.50;;;1.70;;
67074;SDS011;53990;50.334;18.640;2023-08-07T13:46:26;3.10;;;1.70;;
67074;SDS011;53990;50.334;18.640;2023-08-07T13:48:53;3.80;;;2.00;;
67074;SDS011;53990;50.334;18.640;2023-08-07T13:51:20;4.00;;;2.10;;
67074;SDS011;53990;50.334;18.640;2023-08-07T13:53:47;3.40;;;2.00;;
67074;SDS011;53990;50.334;18.640;2023-08-07T13:56:14;3.50;;;2.40;;
67074;SDS011;53990;50.334;18.640;2023-08-07T13:58:41;3.90;;;2.40;;
67074;SDS011;53990;50.334;18.640;2023-08-07T14:01:09;5.20;;;2.50;;
67074;SDS011;53990;50.334;18.640;2023-08-07T14:03:35;4.10;;;2.50;;
67074;SDS011;53990;50.334;18.640;2023-08-07T14:06:02;3.90;;;2.60;;
67074;SDS011;53990;50.334;18.640;2023-08-07T14:08:29;4.70;;;2.60;;
67074;SDS011;53990;50.334;18.640;2023-08-07T14:10:56;4.20;;;2.60;;
67074;SDS011;53990;50.334;18.640;2023-08-07T14:13:23;6.70;;;2.90;;
67074;SDS011;53990;50.334;18.640;2023-08-07T14:15:50;5.20;;;3.00;;
67074;SDS011;53990;50.334;18.640;2023-08-07T14:18:17;5.20;;;3.30;;
67074;SDS011;53990;50.334;18.640;2023-08-07T14:20:44;4.40;;;2.40;;
67074;SDS011;53990;50.334;18.640;2023-08-07T14:23:10;4.90;;;2.50;;
67074;SDS011;53990;50.334;18.640;2023-08-07T14:25:37;4.80;;;3.40;;
67074;SDS011;53990;50.334;18.640;2023-08-07T14:28:04;7.40;;;3.20;;
67074;SDS011;53990;50.334;18.640;2023-08-07T14:30:34;4.90;;;2.90;;
67074;SDS011;53990;50.334;18.640;2023-08-07T14:33:01;5.20;;;2.70;;
67074;SDS011;53990;50.334;18.640;2023-08-07T14:35:27;4.70;;;3.10;;
67074;SDS011;53990;50.334;18.640;2023-08-07T14:37:54;4.20;;;2.50;;
67074;SDS011;53990;50.334;18.640;2023-08-07T14:40:21;5.70;;;3.20;;
67074;SDS011;53990;50.334;18.640;2023-08-07T14:42:48;5.90;;;3.50;;
67074;SDS011;53990;50.334;18.640;2023-08-07T14:45:15;5.50;;;3.00;;
67074;SDS011;53990;50.334;18.640;2023-08-07T14:47:44;4.60;;;3.30;;
67074;SDS011;53990;50.334;18.640;2023-08-07T14:50:16;4.60;;;3.00;;
67074;SDS011;53990;50.334;18.640;2023-08-07T14:52:43;9.90;;;7.30;;
67074;SDS011;53990;50.334;18.640;2023-08-07T14:55:09;6.60;;;4.10;;
67074;SDS011;53990;50.334;18.640;2023-08-07T14:57:36;6.20;;;3.60;;
67074;SDS011;53990;50.334;18.640;2023-08-07T15:00:03;7.40;;;4.30;;
67074;SDS011;53990;50.334;18.640;2023-08-07T15:02:32;8.90;;;5.20;;
67074;SDS011;53990;50.334;18.640;2023-08-07T15:04:59;4.90;;;3.40;;
67074;SDS011;53990;50.334;18.640;2023-08-07T15:07:26;5.90;;;3.70;;